Retrouvez également nos données météorologiques sur:

UK Metoffice

Weather Underground

AWEKAS

Citizen Weather Observer Program (CWOP)



Rapports METAR à proximité

   
LFOJ - Montargis
Mise à jour: 18-07-2019 17:00
Ciel dégagé  
Ciel dégagé  
   Vent: OSO 24.1 km/h<br />Gust to 24.1 km/h
Vent: OSO 24.1 km/h
Gust to 24.1 km/h
Température: 27°C
Point de rosée: 9°C
Humidité: 32%
Pression atmosphérique: 1013 hPa
Visibilité: More than 10 km
Nébulosité: Ciel dégagé
LFOJ 181500Z AUTO 24013G26KT 220V290 CAVOK 27/09 Q1013 NOSIG
LFOJ - Orléans
Mise à jour: 18-07-2019 17:00
Ciel dégagé  
Ciel dégagé  
   Vent: OSO 24.1 km/h<br />Gust to 24.1 km/h
Vent: OSO 24.1 km/h
Gust to 24.1 km/h
Température: 27°C
Point de rosée: 9°C
Humidité: 32%
Pression atmosphérique: 1013 hPa
Visibilité: More than 10 km
Nébulosité: Ciel dégagé
LFOJ 181500Z AUTO 24013G26KT 220V290 CAVOK 27/09 Q1013 NOSIG
LFQB - Sens
Mise à jour: 18-07-2019 17:00
Ciel dégagé  
Ciel dégagé  
   Vent: SO 22.2 km/h
Vent: SO 22.2 km/h
Température: 28°C
Point de rosée: 12°C
Humidité: 37%
Pression atmosphérique: 1013 hPa
Visibilité: More than 10 km
Nébulosité: Ciel dégagé
LFQB 181500Z AUTO 22012KT 190V260 CAVOK 28/12 Q1013
LFQB - Auxerre
Mise à jour: 18-07-2019 17:00
Ciel dégagé  
Ciel dégagé  
   Vent: SO 22.2 km/h
Vent: SO 22.2 km/h
Température: 28°C
Point de rosée: 12°C
Humidité: 37%
Pression atmosphérique: 1013 hPa
Visibilité: More than 10 km
Nébulosité: Ciel dégagé
LFQB 181500Z AUTO 22012KT 190V260 CAVOK 28/12 Q1013
LFPO - Paris
Mise à jour: 18-07-2019 17:00
Ciel dégagé  
Ciel dégagé  
   Vent: Ouest 20.4 km/h
Vent: Ouest 20.4 km/h
Température: 27°C
Point de rosée: 10°C
Humidité: 34%
Pression atmosphérique: 1013 hPa
Visibilité: More than 10 km
Nébulosité: Ciel dégagé
LFPO 181500Z 28011KT 230V310 CAVOK 27/10 Q1013 NOSIG
LFLX - Bourges
Mise à jour: 18-07-2019 17:00
Ciel dégagé  
Ciel dégagé  
   Vent: Ouest 22.2 km/h
Vent: Ouest 22.2 km/h
Température: 26°C
Point de rosée: 12°C
Humidité: 42%
Pression atmosphérique: 1015 hPa
Visibilité: More than 10 km
Nébulosité: Ciel dégagé
LFLX 181500Z AUTO 26012KT 230V290 CAVOK 26/12 Q1015 NOSIG

Original script by  Saratoga-weather.org Adapted for the template by  Weerstation Leuven